Time;durP1;ratioP1;P1;durP2;ratioP2;P2;SDS_P1;SDS_P2;PMS_P1;PMS_P2;Temp;Humidity;BMP_temperature;BMP_pressure;BME280_temperature;BME280_humidity;BME280_pressure;Samples;Min_cycle;Max_cycle;Signal;HPM_P1;HPM_P2
2023/01/04 00:02:14;;;;;;;8.80;2.72;;;8.30;99.90;;;;;;5123281;27;20044;-66
2023/01/04 00:04:41;;;;;;;7.28;2.88;;;8.30;99.90;;;;;;5120370;27;20047;-65
2023/01/04 00:07:08;;;;;;;5.82;2.80;;;8.40;99.90;;;;;;5101690;28;20048;-64
2023/01/04 00:09:35;;;;;;;8.70;2.90;;;8.40;99.90;;;;;;5121599;27;20047;-67
2023/01/04 00:12:02;;;;;;;4.78;2.88;;;8.40;99.90;;;;;;5119280;27;20039;-65
2023/01/04 00:14:30;;;;;;;6.35;2.30;;;8.40;99.90;;;;;;5105712;27;20059;-65
2023/01/04 00:16:57;;;;;;;6.18;3.38;;;8.30;99.90;;;;;;5099492;28;20047;-65
2023/01/04 00:19:24;;;;;;;8.32;2.85;;;8.30;99.90;;;;;;5103267;28;20050;-65
2023/01/04 00:21:52;;;;;;;7.60;2.90;;;8.30;99.90;;;;;;5101770;28;20044;-66
2023/01/04 00:24:19;;;;;;;7.45;2.75;;;8.30;99.90;;;;;;5104695;28;20144;-65
2023/01/04 00:26:46;;;;;;;11.55;3.40;;;8.30;99.90;;;;;;5122892;28;20100;-66
2023/01/04 00:29:13;;;;;;;7.50;3.35;;;8.20;99.90;;;;;;5103967;28;20467;-67
2023/01/04 00:31:43;;;;;;;6.90;3.05;;;8.10;99.90;;;;;;5101374;28;20040;-66
2023/01/04 00:34:12;;;;;;;7.32;3.20;;;8.10;99.90;;;;;;5099275;28;20054;-67
2023/01/04 00:36:39;;;;;;;7.93;3.40;;;8.00;99.90;;;;;;5103765;28;20051;-67
2023/01/04 00:39:11;;;;;;;8.88;3.33;;;8.00;99.90;;;;;;5123294;28;20047;-66
2023/01/04 00:41:40;;;;;;;15.23;4.07;;;7.90;99.90;;;;;;5105032;27;20043;-67
2023/01/04 00:44:08;;;;;;;6.45;3.00;;;7.90;99.90;;;;;;5107473;27;20050;-66
2023/01/04 00:46:35;;;;;;;6.10;3.25;;;7.80;99.90;;;;;;5106639;28;20491;-65
2023/01/04 00:49:05;;;;;;;9.00;3.50;;;7.80;99.90;;;;;;5107720;27;20441;-66
2023/01/04 00:51:33;;;;;;;5.50;3.20;;;7.80;99.90;;;;;;5106345;27;20108;-66
2023/01/04 00:54:01;;;;;;;5.88;3.45;;;7.70;99.90;;;;;;5107291;27;20059;-67
2023/01/04 00:56:29;;;;;;;11.82;4.00;;;7.70;99.90;;;;;;5127732;27;20054;-65
2023/01/04 00:58:56;;;;;;;8.57;3.85;;;7.70;99.90;;;;;;5124004;27;20472;-64
2023/01/04 01:01:23;;;;;;;6.85;3.85;;;7.70;99.90;;;;;;5126448;27;20042;-67
2023/01/04 01:03:53;;;;;;;7.43;3.60;;;7.70;99.90;;;;;;5126352;27;20046;-65
2023/01/04 01:06:23;;;;;;;7.47;3.38;;;7.70;99.90;;;;;;5123618;27;20075;-65
2023/01/04 01:08:50;;;;;;;6.85;3.25;;;7.70;99.90;;;;;;5125371;27;20043;-65
2023/01/04 01:11:18;;;;;;;7.00;3.78;;;7.70;99.90;;;;;;5105830;27;20378;-64
2023/01/04 01:13:45;;;;;;;7.30;3.78;;;7.70;99.90;;;;;;5109469;27;20051;-64
2023/01/04 01:16:14;;;;;;;7.50;4.05;;;7.70;99.90;;;;;;5126516;27;20051;-64
2023/01/04 01:18:43;;;;;;;6.50;3.53;;;7.70;99.90;;;;;;5125672;27;20491;-64
2023/01/04 01:21:12;;;;;;;8.80;3.35;;;7.70;99.90;;;;;;5109304;27;20043;-64
2023/01/04 01:23:42;;;;;;;9.02;3.70;;;7.70;99.90;;;;;;5103900;27;20145;-65
2023/01/04 01:26:12;;;;;;;8.98;3.83;;;7.70;99.90;;;;;;5125913;27;20492;-66
2023/01/04 01:28:39;;;;;;;8.57;3.50;;;7.70;99.90;;;;;;5127310;27;20050;-66
2023/01/04 01:31:08;;;;;;;7.22;3.50;;;7.70;99.90;;;;;;5121879;27;20043;-65
2023/01/04 01:33:36;;;;;;;10.30;3.72;;;7.60;99.90;;;;;;5126372;27;20056;-64
2023/01/04 01:36:04;;;;;;;8.27;4.45;;;7.70;99.90;;;;;;5107619;27;20051;-65
2023/01/04 01:38:31;;;;;;;7.10;4.13;;;7.60;99.90;;;;;;5104001;28;20079;-64
2023/01/04 01:40:59;;;;;;;10.25;4.18;;;7.70;99.90;;;;;;5127160;27;20047;-65
2023/01/04 01:43:52;;;;;;;7.45;4.07;;;7.70;99.90;;;;;;5124728;27;20058;-65
2023/01/04 01:46:23;;;;;;;6.57;3.40;;;7.70;99.90;;;;;;5105002;27;20479;-65
2023/01/04 01:48:50;;;;;;;;;;;7.70;99.90;;;;;;5105804;28;20075;-66
2023/01/04 01:51:18;;;;;;;6.10;3.30;;;7.70;99.90;;;;;;5107983;27;20415;-65
2023/01/04 01:53:49;;;;;;;7.47;3.80;;;7.70;99.90;;;;;;5105027;28;20376;-65
2023/01/04 01:56:19;;;;;;;5.30;3.63;;;7.70;99.90;;;;;;5106670;27;20047;-65
2023/01/04 01:58:50;;;;;;;9.90;3.72;;;7.60;99.90;;;;;;5103220;27;20055;-66
2023/01/04 02:01:17;;;;;;;3.65;2.80;;;7.60;99.90;;;;;;5125453;27;20059;-65
2023/01/04 02:03:44;;;;;;;6.68;3.13;;;7.70;99.90;;;;;;5106108;27;20379;-66
2023/01/04 02:06:13;;;;;;;7.95;3.05;;;7.70;99.90;;;;;;5122267;27;20047;-66
2023/01/04 02:08:42;;;;;;;5.72;2.90;;;7.70;99.90;;;;;;5104849;27;20043;-66
2023/01/04 02:11:09;;;;;;;5.13;3.00;;;7.70;99.90;;;;;;5124063;27;20043;-68
2023/01/04 02:16:33;;;;;;;5.55;2.80;;;7.70;99.90;;;;;;5106797;27;20048;-66
2023/01/04 02:19:10;;;;;;;8.32;2.90;;;7.70;99.90;;;;;;5093494;27;20062;-65
2023/01/04 02:21:49;;;;;;;5.38;2.42;;;7.80;99.90;;;;;;5104366;27;20051;-65
2023/01/04 02:24:47;;;;;;;8.00;2.78;;;7.90;99.90;;;;;;5107838;27;20198;-67
2023/01/04 02:27:41;;;;;;;5.50;2.63;;;7.80;99.90;;;;;;5106309;27;20474;-67
2023/01/04 02:30:50;;;;;;;8.35;2.33;;;7.80;99.90;;;;;;5106982;27;20051;-66
2023/01/04 02:33:29;;;;;;;5.60;2.10;;;7.80;99.90;;;;;;5073057;27;20051;-67
2023/01/04 02:36:04;;;;;;;2.90;1.98;;;7.90;99.90;;;;;;5123137;27;20130;-66
2023/01/04 02:38:42;;;;;;;3.20;2.28;;;7.90;99.90;;;;;;5108218;27;20042;-66
2023/01/04 02:41:18;;;;;;;3.03;2.00;;;7.90;99.90;;;;;;5122303;27;20051;-67
2023/01/04 02:46:44;;;;;;;5.57;2.03;;;8.00;99.90;;;;;;5124762;27;20051;-67
2023/01/04 02:51:51;;;;;;;;;;;8.10;99.90;;;;;;5062443;27;20062;-67
2023/01/04 02:54:23;;;;;;;2.13;1.50;;;8.10;99.90;;;;;;5121366;27;19920;-67
2023/01/04 02:57:00;;;;;;;2.33;1.60;;;8.20;99.90;;;;;;5122368;27;20475;-67
2023/01/04 02:59:50;;;;;;;4.32;1.80;;;8.10;99.90;;;;;;5106862;27;20051;-65
2023/01/04 03:08:26;;;;;;;3.63;2.00;;;8.20;99.90;;;;;;5104338;27;20043;-66
2023/01/04 03:10:58;;;;;;;2.45;1.38;;;8.20;99.90;;;;;;5124507;27;20043;-66
2023/01/04 03:13:28;;;;;;;3.05;1.40;;;8.20;99.90;;;;;;5104407;27;20067;-66
2023/01/04 03:16:02;;;;;;;3.47;1.50;;;8.30;99.90;;;;;;5105975;27;20474;-67
2023/01/04 03:18:33;;;;;;;2.05;1.40;;;8.40;99.90;;;;;;5102386;27;20055;-67
2023/01/04 03:21:03;;;;;;;2.42;1.70;;;8.30;99.90;;;;;;5104916;28;20047;-68
2023/01/04 03:37:48;;;;;;;2.60;1.52;;;8.50;99.90;;;;;;5104511;27;20043;-67
2023/01/04 03:48:56;;;;;;;2.38;1.60;;;8.70;99.90;;;;;;5103235;27;20074;-66
2023/01/04 03:51:28;;;;;;;2.72;1.60;;;8.70;99.90;;;;;;5103810;27;20128;-67
2023/01/04 03:54:02;;;;;;;3.42;1.73;;;8.90;99.90;;;;;;5121857;27;20055;-67
2023/01/04 03:56:31;;;;;;;3.08;1.40;;;8.90;99.90;;;;;;5120802;27;20119;-63
2023/01/04 03:58:58;;;;;;;2.92;1.70;;;8.70;99.90;;;;;;5105780;27;20055;-63
2023/01/04 04:01:26;;;;;;;2.80;1.50;;;8.90;99.90;;;;;;5103383;27;20058;-64
2023/01/04 04:09:23;;;;;;;3.83;1.88;;;9.10;99.90;;;;;;5120128;27;20050;-64
2023/01/04 04:11:50;;;;;;;2.90;1.90;;;9.10;99.90;;;;;;5103698;27;20043;-64
2023/01/04 04:14:17;;;;;;;2.00;1.52;;;9.20;99.90;;;;;;5122939;27;20117;-64
2023/01/04 04:16:43;;;;;;;3.30;1.98;;;9.10;99.90;;;;;;5104421;28;20380;-64
2023/01/04 04:19:10;;;;;;;2.75;1.90;;;9.30;99.90;;;;;;5124052;27;20055;-64
2023/01/04 04:21:39;;;;;;;2.67;1.88;;;9.20;99.90;;;;;;5120881;28;20503;-64
2023/01/04 04:24:06;;;;;;;3.45;2.63;;;9.20;99.90;;;;;;5121623;28;20039;-63
2023/01/04 04:26:33;;;;;;;3.33;2.28;;;9.20;99.90;;;;;;5099624;28;20564;-64
2023/01/04 04:29:00;;;;;;;3.63;2.50;;;9.40;99.90;;;;;;5124537;28;20126;-63
2023/01/04 04:31:27;;;;;;;3.97;2.40;;;9.30;99.90;;;;;;5103008;28;20042;-63
2023/01/04 04:33:54;;;;;;;3.47;2.58;;;9.40;99.90;;;;;;5102141;28;20055;-64
2023/01/04 04:36:21;;;;;;;3.17;2.60;;;9.60;99.90;;;;;;5124257;28;20103;-64
2023/01/04 04:38:49;;;;;;;3.15;2.45;;;9.60;99.90;;;;;;5101511;28;20048;-64
2023/01/04 04:44:00;;;;;;;3.80;2.83;;;9.80;99.90;;;;;;5102104;28;20040;-63
2023/01/04 04:46:27;;;;;;;3.97;3.13;;;9.60;99.90;;;;;;5120814;28;20414;-63
2023/01/04 04:48:54;;;;;;;4.15;3.17;;;9.80;99.90;;;;;;5120900;28;20047;-63
2023/01/04 04:51:21;;;;;;;4.07;3.17;;;9.80;99.90;;;;;;5105866;28;20104;-63
2023/01/04 04:53:49;;;;;;;3.80;2.95;;;9.80;99.90;;;;;;5101226;28;20093;-63
2023/01/04 04:56:16;;;;;;;4.03;2.72;;;9.70;99.90;;;;;;5090675;28;20454;-63
2023/01/04 04:58:43;;;;;;;4.15;2.97;;;9.80;99.90;;;;;;5096326;28;20444;-63
2023/01/04 05:01:10;;;;;;;5.93;3.38;;;9.80;99.90;;;;;;5120786;28;20044;-64
2023/01/04 05:03:37;;;;;;;4.25;3.42;;;9.90;99.90;;;;;;5118868;28;20052;-63
2023/01/04 05:06:05;;;;;;;4.80;3.13;;;9.90;99.90;;;;;;5100215;28;20055;-63
2023/01/04 05:08:32;;;;;;;4.43;3.47;;;9.90;99.90;;;;;;5098386;28;20064;-63
2023/01/04 05:11:00;;;;;;;4.90;3.22;;;10.00;99.90;;;;;;5101783;28;20051;-64
2023/01/04 05:13:26;;;;;;;4.28;2.97;;;10.00;99.90;;;;;;5104702;28;20518;-64
2023/01/04 05:15:54;;;;;;;3.60;2.72;;;10.10;99.90;;;;;;5097038;28;20047;-64
2023/01/04 05:18:22;;;;;;;7.53;2.70;;;10.00;99.90;;;;;;5114611;28;20058;-63
2023/01/04 05:20:50;;;;;;;4.35;2.88;;;10.10;99.90;;;;;;5098597;28;20108;-64
2023/01/04 05:23:19;;;;;;;3.88;2.50;;;10.10;99.90;;;;;;5121574;28;20036;-64
2023/01/04 05:25:46;;;;;;;3.58;3.00;;;10.20;99.90;;;;;;5099483;28;20047;-63
2023/01/04 05:28:15;;;;;;;3.10;2.40;;;10.20;99.90;;;;;;5106626;27;20051;-63
2023/01/04 05:30:49;;;;;;;3.35;2.40;;;10.20;99.90;;;;;;5103327;28;20528;-63
2023/01/04 05:33:16;;;;;;;4.88;2.67;;;10.30;99.90;;;;;;5101034;27;20096;-62
2023/01/04 05:35:43;;;;;;;4.03;2.78;;;10.10;99.90;;;;;;5122654;27;20495;-62
2023/01/04 05:38:10;;;;;;;5.30;2.72;;;10.30;99.90;;;;;;5119884;27;20402;-62
2023/01/04 05:40:37;;;;;;;3.13;2.17;;;10.20;99.90;;;;;;5120406;27;20055;-62
2023/01/04 05:43:04;;;;;;;3.72;2.35;;;10.20;99.90;;;;;;5101706;27;20055;-62
2023/01/04 05:45:32;;;;;;;5.20;2.05;;;10.20;99.90;;;;;;5101602;27;20384;-63
2023/01/04 05:48:00;;;;;;;5.43;2.75;;;10.40;99.90;;;;;;5100764;27;20097;-64
2023/01/04 05:50:27;;;;;;;4.20;2.53;;;10.30;99.90;;;;;;5099729;27;20507;-63
2023/01/04 05:52:54;;;;;;;4.38;2.50;;;10.20;99.90;;;;;;5122977;27;20040;-63
2023/01/04 05:55:21;;;;;;;4.20;2.40;;;10.10;99.90;;;;;;5123923;27;20043;-64
2023/01/04 05:57:48;;;;;;;4.03;2.42;;;10.20;99.90;;;;;;5120014;27;20393;-64
2023/01/04 06:00:15;;;;;;;2.90;1.90;;;10.30;99.90;;;;;;5098532;28;20548;-64
2023/01/04 06:02:44;;;;;;;3.15;2.28;;;10.20;99.90;;;;;;5123786;27;20120;-64
2023/01/04 06:05:12;;;;;;;3.42;2.20;;;10.30;99.90;;;;;;5102425;27;20048;-65
2023/01/04 06:07:40;;;;;;;2.40;1.60;;;10.30;99.90;;;;;;5103800;28;20055;-63
2023/01/04 06:10:08;;;;;;;2.58;1.80;;;10.20;99.90;;;;;;5103138;28;20403;-62
2023/01/04 06:12:35;;;;;;;2.65;2.00;;;10.40;99.90;;;;;;5103158;27;20050;-63
2023/01/04 06:15:03;;;;;;;3.45;2.58;;;10.30;99.90;;;;;;5101365;27;20047;-64
2023/01/04 06:17:29;;;;;;;5.32;2.10;;;10.40;99.90;;;;;;5104909;28;20048;-64
2023/01/04 06:19:58;;;;;;;3.38;1.88;;;10.30;99.90;;;;;;5103786;27;20051;-64
2023/01/04 06:22:25;;;;;;;3.22;2.25;;;10.30;99.90;;;;;;5121225;27;20399;-65
2023/01/04 06:24:52;;;;;;;4.05;2.15;;;10.20;99.90;;;;;;5104521;27;20062;-64
2023/01/04 06:27:19;;;;;;;4.07;2.05;;;10.20;99.90;;;;;;5101795;27;20051;-64
2023/01/04 06:29:46;;;;;;;4.15;2.10;;;10.30;99.90;;;;;;5108528;27;20497;-65
2023/01/04 06:32:13;;;;;;;3.05;2.10;;;10.40;99.90;;;;;;5102236;27;20109;-64
2023/01/04 06:34:40;;;;;;;4.82;2.22;;;10.40;99.90;;;;;;5120300;27;20403;-65
2023/01/04 06:37:08;;;;;;;2.78;1.80;;;10.40;99.90;;;;;;5099199;28;20058;-65
2023/01/04 06:39:36;;;;;;;4.50;2.00;;;10.30;99.90;;;;;;5098699;27;20056;-64
2023/01/04 06:42:02;;;;;;;6.03;2.53;;;10.30;99.90;;;;;;5118607;27;20096;-65
2023/01/04 06:44:29;;;;;;;3.65;1.48;;;10.30;99.90;;;;;;5119844;27;20100;-65
2023/01/04 06:46:56;;;;;;;3.65;1.83;;;10.30;99.90;;;;;;5099542;28;20493;-65
2023/01/04 06:49:23;;;;;;;4.30;2.10;;;10.40;99.90;;;;;;5125613;27;20047;-65
2023/01/04 06:51:50;;;;;;;4.25;1.50;;;10.30;99.90;;;;;;5098642;28;20043;-65
2023/01/04 06:54:18;;;;;;;2.90;1.60;;;10.50;99.90;;;;;;5103485;27;20051;-65
2023/01/04 06:56:45;;;;;;;2.90;1.67;;;10.50;99.90;;;;;;5101550;27;20471;-65
2023/01/04 06:59:12;;;;;;;3.88;1.77;;;10.40;99.90;;;;;;5122212;27;20499;-66
2023/01/04 07:01:39;;;;;;;3.05;1.75;;;10.30;99.90;;;;;;5100959;28;20044;-64
2023/01/04 07:04:06;;;;;;;2.47;1.70;;;10.30;99.90;;;;;;5099134;28;20433;-64
2023/01/04 07:06:33;;;;;;;3.03;1.70;;;10.30;99.90;;;;;;5100245;28;20058;-64
2023/01/04 07:08:59;;;;;;;3.28;2.22;;;10.40;99.90;;;;;;5103230;27;20062;-65
2023/01/04 07:11:28;;;;;;;2.90;1.70;;;10.40;99.90;;;;;;5118717;27;20494;-64
2023/01/04 07:13:54;;;;;;;3.63;1.70;;;10.60;99.90;;;;;;5121836;27;20047;-63
2023/01/04 07:16:21;;;;;;;3.80;2.38;;;10.60;99.90;;;;;;5115905;27;20058;-64
2023/01/04 07:18:48;;;;;;;5.38;2.60;;;10.60;99.90;;;;;;5123922;27;20100;-63
2023/01/04 07:21:15;;;;;;;5.60;2.15;;;10.40;99.90;;;;;;5121765;27;20062;-65
2023/01/04 07:23:43;;;;;;;4.13;2.58;;;10.40;99.90;;;;;;5124313;27;20449;-64
2023/01/04 07:26:10;;;;;;;5.43;3.00;;;10.60;99.90;;;;;;5102137;27;20052;-64
2023/01/04 07:31:22;;;;;;;6.40;3.25;;;10.40;99.90;;;;;;5120468;27;20059;-65
2023/01/04 07:33:50;;;;;;;10.18;2.83;;;10.50;99.90;;;;;;5121689;27;20039;-64
2023/01/04 07:36:17;;;;;;;4.97;2.50;;;10.60;99.90;;;;;;5096527;28;20047;-65
2023/01/04 07:38:44;;;;;;;3.97;2.45;;;10.40;99.90;;;;;;5118969;27;20052;-65
2023/01/04 07:41:11;;;;;;;6.57;2.10;;;10.50;99.90;;;;;;5119197;27;20116;-64
2023/01/04 07:43:39;;;;;;;5.10;1.92;;;10.60;99.90;;;;;;5116261;27;20044;-65
2023/01/04 07:46:06;;;;;;;4.88;2.40;;;10.30;99.90;;;;;;5118206;27;20487;-65
2023/01/04 07:48:33;;;;;;;3.72;2.20;;;10.40;99.90;;;;;;5102126;27;20051;-64
2023/01/04 07:51:00;;;;;;;7.03;2.33;;;10.30;99.90;;;;;;5117080;27;20059;-64
2023/01/04 07:53:27;;;;;;;5.10;2.30;;;10.30;99.90;;;;;;5103621;27;20047;-64
2023/01/04 07:55:57;;;;;;;4.68;2.28;;;10.30;99.90;;;;;;5099842;28;20648;-65
2023/01/04 07:58:25;;;;;;;3.20;1.80;;;10.50;99.90;;;;;;5100913;28;20059;-65
2023/01/04 08:00:54;;;;;;;4.60;2.08;;;10.60;99.90;;;;;;5100471;27;20055;-64
2023/01/04 08:03:22;;;;;;;7.63;2.20;;;10.30;99.90;;;;;;5101938;28;20036;-64
2023/01/04 08:05:49;;;;;;;5.72;1.92;;;10.50;99.90;;;;;;5121962;27;20054;-65
2023/01/04 08:08:17;;;;;;;3.25;1.90;;;10.40;99.90;;;;;;5123175;27;20510;-66
2023/01/04 08:10:44;;;;;;;4.22;2.00;;;10.40;99.90;;;;;;5123106;27;20074;-66
2023/01/04 08:13:12;;;;;;;4.22;2.55;;;10.30;99.90;;;;;;5100787;28;20126;-65
2023/01/04 08:15:39;;;;;;;6.00;2.13;;;10.50;99.90;;;;;;5120892;27;20083;-65
2023/01/04 08:18:08;;;;;;;6.60;1.90;;;10.50;99.90;;;;;;5102077;28;20048;-65
2023/01/04 08:20:36;;;;;;;3.42;1.42;;;10.50;99.90;;;;;;5113267;27;20043;-64
2023/01/04 08:23:03;;;;;;;3.75;1.60;;;10.40;99.90;;;;;;5113088;27;20126;-65
2023/01/04 08:25:31;;;;;;;4.18;1.80;;;10.40;99.90;;;;;;5111806;28;20134;-65
2023/01/04 08:27:58;;;;;;;2.47;1.67;;;10.40;99.90;;;;;;5108238;28;20052;-65
2023/01/04 08:30:26;;;;;;;3.90;1.70;;;10.50;99.90;;;;;;5113017;28;20047;-65
2023/01/04 08:32:54;;;;;;;2.88;1.60;;;10.60;99.90;;;;;;5131525;28;20071;-65
2023/01/04 08:35:23;;;;;;;4.03;1.83;;;10.40;99.90;;;;;;5131724;28;20067;-65
2023/01/04 08:37:50;;;;;;;4.00;1.90;;;10.40;99.90;;;;;;5112184;28;20047;-64
2023/01/04 08:40:18;;;;;;;3.75;1.88;;;10.60;99.90;;;;;;5111748;28;20048;-64
2023/01/04 08:42:46;;;;;;;3.75;1.92;;;10.60;99.90;;;;;;5112587;28;20081;-65
2023/01/04 08:45:13;;;;;;;3.97;1.98;;;10.50;99.90;;;;;;5112473;28;20050;-65
2023/01/04 08:47:41;;;;;;;6.85;1.85;;;10.60;99.90;;;;;;5111868;28;20122;-65
2023/01/04 08:50:09;;;;;;;3.35;1.60;;;10.50;99.90;;;;;;5112677;28;20059;-64
2023/01/04 08:52:38;;;;;;;4.00;1.70;;;10.40;99.90;;;;;;5112689;28;20044;-64
2023/01/04 08:55:07;;;;;;;5.68;1.60;;;10.40;99.90;;;;;;5112005;28;20051;-64
2023/01/04 08:57:35;;;;;;;3.83;1.50;;;10.60;99.90;;;;;;5112357;28;20100;-65
2023/01/04 09:00:03;;;;;;;6.03;1.90;;;10.40;99.90;;;;;;5094083;28;20557;-65
2023/01/04 09:02:30;;;;;;;4.68;1.63;;;10.40;99.90;;;;;;5114387;27;20109;-65
2023/01/04 09:05:01;;;;;;;3.38;1.60;;;10.40;99.90;;;;;;5116353;27;20093;-65
2023/01/04 09:07:28;;;;;;;;;;;10.40;99.90;;;;;;5097927;28;20051;-65
2023/01/04 09:09:59;;;;;;;5.45;2.00;;;10.40;99.90;;;;;;5116572;27;20361;-64
2023/01/04 09:12:27;;;;;;;4.63;1.98;;;10.50;99.90;;;;;;5097773;28;20153;-64
2023/01/04 09:14:54;;;;;;;6.15;2.30;;;10.40;99.90;;;;;;5097272;28;20123;-65
2023/01/04 09:17:21;;;;;;;4.72;1.98;;;10.70;99.90;;;;;;5115494;27;20479;-64
2023/01/04 09:19:49;;;;;;;7.32;1.95;;;10.60;99.90;;;;;;5116076;27;20106;-65
2023/01/04 09:22:17;;;;;;;5.10;2.10;;;10.60;99.90;;;;;;5134852;27;20490;-65
2023/01/04 09:24:44;;;;;;;6.03;2.40;;;10.60;99.90;;;;;;5135419;27;20142;-65
2023/01/04 09:27:13;;;;;;;6.20;2.65;;;10.40;99.90;;;;;;5115750;27;20407;-65
2023/01/04 09:29:41;;;;;;;7.85;2.30;;;10.60;99.90;;;;;;5115163;27;20518;-64
2023/01/04 09:32:09;;;;;;;7.55;3.08;;;10.50;99.90;;;;;;5115882;27;20060;-64
2023/01/04 09:34:36;;;;;;;5.63;2.90;;;10.60;99.90;;;;;;5097095;28;20047;-64
2023/01/04 09:37:03;;;;;;;6.03;3.22;;;10.40;99.90;;;;;;5096578;27;20063;-65
2023/01/04 09:39:31;;;;;;;8.35;3.28;;;10.60;99.90;;;;;;5115862;27;20139;-65
2023/01/04 09:42:02;;;;;;;9.38;3.05;;;10.40;99.90;;;;;;5097490;28;20406;-65
2023/01/04 09:44:45;;;;;;;8.57;2.90;;;10.60;99.90;;;;;;5096474;27;20055;-65
2023/01/04 09:47:17;;;;;;;7.60;2.92;;;10.50;99.90;;;;;;5097435;28;20051;-65
2023/01/04 09:49:49;;;;;;;8.30;3.60;;;10.70;99.90;;;;;;5115054;27;20119;-64
2023/01/04 09:52:21;;;;;;;8.32;3.20;;;10.50;99.90;;;;;;5097081;28;20047;-65
2023/01/04 09:54:53;;;;;;;12.05;3.42;;;10.50;99.90;;;;;;5096987;27;20048;-65
2023/01/04 09:57:26;;;;;;;8.60;2.65;;;10.60;99.90;;;;;;5116392;27;20441;-64
2023/01/04 10:00:01;;;;;;;11.75;3.67;;;10.50;99.90;;;;;;5116443;27;20096;-64
2023/01/04 10:02:38;;;;;;;13.60;3.38;;;10.50;99.90;;;;;;5115732;27;20123;-65
2023/01/04 10:05:07;;;;;;;10.98;3.30;;;10.50;99.90;;;;;;5115162;27;20498;-65
2023/01/04 10:07:35;;;;;;;9.15;3.30;;;10.60;99.90;;;;;;5115284;27;20447;-65
2023/01/04 10:10:02;;;;;;;9.00;2.97;;;10.70;99.90;;;;;;5096315;28;20410;-65
2023/01/04 10:12:45;;;;;;;11.18;3.60;;;10.80;99.90;;;;;;5096293;28;20051;-65
2023/01/04 10:15:30;;;;;;;16.75;4.30;;;10.80;99.90;;;;;;5098061;27;20039;-65
2023/01/04 10:18:16;;;;;;;17.25;3.65;;;10.80;99.90;;;;;;5133754;27;20055;-65
2023/01/04 10:21:09;;;;;;;15.30;3.38;;;10.80;99.90;;;;;;5098120;28;20083;-65
2023/01/04 10:23:58;;;;;;;21.10;4.28;;;10.80;99.90;;;;;;5114519;27;20052;-65
2023/01/04 10:26:30;;;;;;;13.25;3.45;;;10.70;99.90;;;;;;5113960;27;20132;-64
2023/01/04 10:29:17;;;;;;;16.98;4.28;;;10.80;99.90;;;;;;5134061;27;20057;-65
2023/01/04 10:31:51;;;;;;;11.35;3.63;;;10.80;99.90;;;;;;5115989;27;20127;-66
2023/01/04 10:34:24;;;;;;;12.18;4.43;;;10.80;99.90;;;;;;5096193;28;20042;-65
2023/01/04 10:36:57;;;;;;;12.52;3.75;;;11.10;99.90;;;;;;5095941;28;20051;-65
2023/01/04 10:39:27;;;;;;;19.08;4.93;;;10.80;99.90;;;;;;5095452;28;20373;-65
2023/01/04 10:41:59;;;;;;;15.95;3.92;;;11.10;99.90;;;;;;5129602;27;20039;-65
2023/01/04 10:44:33;;;;;;;20.42;4.63;;;10.90;99.90;;;;;;5112877;27;20122;-65
2023/01/04 10:47:08;;;;;;;14.30;5.00;;;10.90;99.90;;;;;;5112230;27;20054;-65
2023/01/04 10:49:43;;;;;;;15.15;4.45;;;11.00;99.90;;;;;;5131109;27;20505;-66
2023/01/04 10:52:16;;;;;;;21.30;5.68;;;11.20;99.90;;;;;;5133833;27;20050;-64
2023/01/04 10:54:50;;;;;;;28.23;6.65;;;11.10;99.90;;;;;;5132859;27;20046;-65
2023/01/04 10:57:25;;;;;;;18.13;5.00;;;11.00;99.90;;;;;;5132604;27;20051;-66
2023/01/04 10:59:56;;;;;;;14.77;5.65;;;11.10;99.90;;;;;;5095239;27;20051;-64
2023/01/04 11:02:33;;;;;;;15.70;5.68;;;11.20;99.90;;;;;;5114388;28;20097;-65
2023/01/04 11:05:04;;;;;;;21.20;5.10;;;11.30;99.90;;;;;;5097259;28;20115;-65
2023/01/04 11:07:39;;;;;;;31.73;7.43;;;11.40;99.90;;;;;;5095252;28;20146;-65
2023/01/04 11:10:13;;;;;;;17.88;5.45;;;11.40;99.90;;;;;;5095359;28;20513;-65
2023/01/04 11:12:40;;;;;;;25.92;5.57;;;11.40;99.90;;;;;;5095925;28;20172;-67
2023/01/04 11:15:09;;;;;;;24.90;6.13;;;11.20;99.90;;;;;;5113454;28;20475;-66
2023/01/04 11:17:38;;;;;;;27.83;5.35;;;11.20;99.90;;;;;;5110205;27;20495;-66
2023/01/04 11:20:07;;;;;;;25.27;4.97;;;11.20;99.90;;;;;;5095610;27;20040;-65
2023/01/04 11:22:39;;;;;;;22.05;5.90;;;11.40;99.90;;;;;;5094665;27;20048;-65
2023/01/04 11:25:11;;;;;;;22.05;5.63;;;11.20;99.90;;;;;;5094922;27;20079;-65
2023/01/04 11:27:46;;;;;;;16.10;5.18;;;11.30;99.90;;;;;;5095381;27;20051;-65
2023/01/04 11:30:18;;;;;;;19.73;5.22;;;11.20;99.90;;;;;;5094661;28;20528;-66
2023/01/04 11:32:55;;;;;;;11.13;3.60;;;11.20;99.90;;;;;;5127170;27;20039;-65
2023/01/04 11:35:40;;;;;;;14.75;4.15;;;11.10;99.90;;;;;;5091302;28;20043;-66
2023/01/04 11:38:12;;;;;;;14.45;4.78;;;11.20;99.90;;;;;;5092974;28;20506;-65
2023/01/04 11:40:40;;;;;;;21.33;4.30;;;11.20;99.90;;;;;;5093392;28;20051;-65
2023/01/04 11:43:17;;;;;;;18.83;4.28;;;11.40;99.90;;;;;;5112675;27;20399;-65
2023/01/04 11:46:01;;;;;;;19.35;5.57;;;11.20;99.90;;;;;;5112051;28;20096;-64
2023/01/04 11:48:41;;;;;;;22.65;5.78;;;11.30;99.90;;;;;;5112736;28;20087;-65
2023/01/04 11:51:33;;;;;;;18.20;5.63;;;11.20;99.90;;;;;;5093478;28;20062;-66
2023/01/04 11:54:03;;;;;;;22.05;6.32;;;11.30;99.90;;;;;;5096118;28;20426;-66
2023/01/04 11:56:31;;;;;;;;;;;11.30;99.90;;;;;;5093060;28;20408;-66
2023/01/04 11:59:11;;;;;;;19.75;5.13;;;11.30;99.90;;;;;;5114099;27;20343;-65
2023/01/04 12:01:42;;;;;;;18.58;5.70;;;11.20;99.90;;;;;;5100281;28;20090;-66
2023/01/04 12:04:16;;;;;;;17.52;4.28;;;11.30;99.90;;;;;;5093889;28;20039;-64
2023/01/04 12:06:50;;;;;;;18.27;5.07;;;11.40;99.90;;;;;;5111517;27;20050;-65
2023/01/04 12:09:20;;;;;;;19.65;4.30;;;11.40;99.90;;;;;;5111671;28;20043;-65
2023/01/04 12:11:50;;;;;;;19.25;5.25;;;11.20;99.90;;;;;;5093048;28;20092;-65
2023/01/04 12:14:24;;;;;;;19.33;4.78;;;11.20;99.90;;;;;;5093436;28;20088;-64
2023/01/04 12:17:01;;;;;;;21.08;4.80;;;11.30;99.90;;;;;;5096142;28;20055;-64
2023/01/04 12:19:30;;;;;;;19.27;4.60;;;11.40;99.90;;;;;;5093679;28;20044;-65
2023/01/04 12:22:01;;;;;;;16.70;4.38;;;11.20;99.90;;;;;;5093474;28;20090;-65
2023/01/04 12:24:30;;;;;;;;;;;11.30;99.90;;;;;;5112009;28;20041;-65
2023/01/04 12:26:58;;;;;;;16.88;4.07;;;11.40;99.90;;;;;;5098029;27;19920;-64
2023/01/04 12:29:43;;;;;;;16.10;3.80;;;11.20;99.90;;;;;;5102936;28;20062;-65
2023/01/04 12:32:40;;;;;;;13.40;3.55;;;11.30;99.90;;;;;;5095396;28;20051;-65
2023/01/04 12:35:40;;;;;;;15.93;3.75;;;11.40;99.90;;;;;;5092822;28;20071;-65
2023/01/04 12:38:10;;;;;;;15.00;3.60;;;11.40;99.90;;;;;;5096624;28;20361;-65
2023/01/04 12:40:54;;;;;;;13.80;3.13;;;11.30;99.90;;;;;;5096985;28;20122;-65
2023/01/04 12:43:27;;;;;;;13.55;3.45;;;11.30;99.90;;;;;;5097631;28;20093;-64
2023/01/04 12:49:51;;;;;;;15.55;3.13;;;11.40;99.90;;;;;;5098456;28;20039;-65
2023/01/04 12:52:41;;;;;;;17.17;3.50;;;11.30;99.90;;;;;;5133058;27;20175;-65
2023/01/04 12:58:28;;;;;;;8.32;3.03;;;11.30;99.90;;;;;;5151076;27;19926;-65
2023/01/04 13:01:23;;;;;;;13.57;3.58;;;11.30;99.90;;;;;;5129417;28;20047;-64
2023/01/04 13:03:56;;;;;;;11.15;2.45;;;11.30;99.90;;;;;;5109249;28;20518;-66
2023/01/04 13:06:25;;;;;;;10.27;3.15;;;11.20;99.90;;;;;;5111720;28;20086;-65
2023/01/04 13:08:53;;;;;;;12.95;2.63;;;11.20;99.90;;;;;;5129667;28;20051;-64
2023/01/04 13:11:51;;;;;;;11.13;3.03;;;11.10;99.90;;;;;;5127887;28;20043;-65
2023/01/04 13:14:26;;;;;;;7.82;3.00;;;11.20;99.90;;;;;;5104219;28;20498;-65
2023/01/04 13:17:17;;;;;;;8.95;3.33;;;11.10;99.90;;;;;;5129815;28;20096;-66
2023/01/04 13:19:45;;;;;;;;;;;11.20;99.90;;;;;;5111869;28;20118;-64
2023/01/04 13:22:22;;;;;;;16.58;3.65;;;11.20;99.90;;;;;;5129319;28;19920;-64
2023/01/04 13:24:50;;;;;;;8.18;3.63;;;11.20;99.90;;;;;;5111519;28;20096;-64
2023/01/04 13:27:19;;;;;;;11.77;3.30;;;11.20;99.90;;;;;;5111551;28;20103;-65
2023/01/04 13:29:47;;;;;;;16.00;4.55;;;11.20;99.90;;;;;;5128866;28;20514;-64
2023/01/04 13:32:22;;;;;;;18.17;6.13;;;11.10;99.90;;;;;;5109374;28;20502;-65
2023/01/04 13:34:54;;;;;;;15.43;4.10;;;11.20;99.90;;;;;;5111018;28;20529;-65
2023/01/04 13:37:31;;;;;;;12.05;3.83;;;11.20;99.90;;;;;;5111018;28;20406;-65
2023/01/04 13:40:22;;;;;;;16.92;4.47;;;11.20;99.90;;;;;;5129246;28;20051;-64
2023/01/04 13:42:50;;;;;;;;;;;11.10;99.90;;;;;;5111222;28;20134;-65
2023/01/04 13:45:39;;;;;;;18.67;4.97;;;11.20;99.90;;;;;;5129594;28;19920;-65
2023/01/04 13:48:12;;;;;;;18.48;5.63;;;11.20;99.90;;;;;;5127928;28;20050;-64
2023/01/04 13:50:45;;;;;;;16.20;4.93;;;11.20;99.90;;;;;;5110454;28;20475;-65
2023/01/04 13:53:19;;;;;;;17.90;4.22;;;11.10;99.90;;;;;;5111181;28;20043;-64
2023/01/04 13:55:51;;;;;;;13.75;4.40;;;11.10;99.90;;;;;;5110306;28;20070;-65
2023/01/04 13:58:19;;;;;;;23.42;5.10;;;11.10;99.90;;;;;;5129033;28;20039;-64
2023/01/04 14:00:51;;;;;;;18.15;4.57;;;11.00;99.90;;;;;;5127761;28;20047;-65
2023/01/04 14:03:28;;;;;;;20.20;4.30;;;11.10;99.90;;;;;;5109988;28;20074;-65